sensor_id;sensor_type;location;lat;lon;timestamp;temperature;humidity
6756;DHT22;3415;51.148;7.014;2024-02-16T00:15:15;12.60;1.00
6756;DHT22;3415;51.148;7.014;2024-02-16T00:17:43;12.60;1.00
6756;DHT22;3415;51.148;7.014;2024-02-16T00:20:10;12.60;1.00
6756;DHT22;3415;51.148;7.014;2024-02-16T00:25:06;12.60;1.00
6756;DHT22;3415;51.148;7.014;2024-02-16T00:27:35;12.60;1.00
6756;DHT22;3415;51.148;7.014;2024-02-16T00:30:02;12.60;1.00
6756;DHT22;3415;51.148;7.014;2024-02-16T00:32:30;12.60;1.00
6756;DHT22;3415;51.148;7.014;2024-02-16T00:34:57;12.60;1.00
6756;DHT22;3415;51.148;7.014;2024-02-16T00:37:24;12.90;1.00
6756;DHT22;3415;51.148;7.014;2024-02-16T00:39:51;12.60;1.00
6756;DHT22;3415;51.148;7.014;2024-02-16T00:42:20;12.80;1.00
6756;DHT22;3415;51.148;7.014;2024-02-16T00:44:49;12.80;1.00
6756;DHT22;3415;51.148;7.014;2024-02-16T00:47:17;12.80;1.00
6756;DHT22;3415;51.148;7.014;2024-02-16T00:49:43;12.80;1.00
6756;DHT22;3415;51.148;7.014;2024-02-16T00:52:10;12.80;1.00
6756;DHT22;3415;51.148;7.014;2024-02-16T00:54:37;12.80;1.00
6756;DHT22;3415;51.148;7.014;2024-02-16T00:57:05;13.40;1.00
6756;DHT22;3415;51.148;7.014;2024-02-16T00:59:32;12.80;1.00
6756;DHT22;3415;51.148;7.014;2024-02-16T01:02:00;12.80;1.00
6756;DHT22;3415;51.148;7.014;2024-02-16T01:04:27;12.80;1.00
6756;DHT22;3415;51.148;7.014;2024-02-16T01:06:55;12.80;1.00
6756;DHT22;3415;51.148;7.014;2024-02-16T01:09:22;12.80;1.00
6756;DHT22;3415;51.148;7.014;2024-02-16T01:11:49;12.80;1.00
6756;DHT22;3415;51.148;7.014;2024-02-16T01:16:43;12.80;1.00
6756;DHT22;3415;51.148;7.014;2024-02-16T01:19:12;12.80;1.00
6756;DHT22;3415;51.148;7.014;2024-02-16T01:21:39;12.90;1.00
6756;DHT22;3415;51.148;7.014;2024-02-16T01:24:06;12.80;1.00
6756;DHT22;3415;51.148;7.014;2024-02-16T01:26:34;12.80;1.00
6756;DHT22;3415;51.148;7.014;2024-02-16T01:29:01;12.80;1.00
6756;DHT22;3415;51.148;7.014;2024-02-16T01:31:28;12.90;1.00
6756;DHT22;3415;51.148;7.014;2024-02-16T01:33:55;12.70;1.00
6756;DHT22;3415;51.148;7.014;2024-02-16T01:36:23;12.70;1.00
6756;DHT22;3415;51.148;7.014;2024-02-16T01:38:50;12.70;1.00
6756;DHT22;3415;51.148;7.014;2024-02-16T01:41:17;12.80;1.00
6756;DHT22;3415;51.148;7.014;2024-02-16T01:43:44;12.80;1.00
6756;DHT22;3415;51.148;7.014;2024-02-16T01:46:11;12.70;1.00
6756;DHT22;3415;51.148;7.014;2024-02-16T01:48:38;12.80;1.00
6756;DHT22;3415;51.148;7.014;2024-02-16T01:51:07;12.90;1.00
6756;DHT22;3415;51.148;7.014;2024-02-16T01:53:36;12.90;1.00
6756;DHT22;3415;51.148;7.014;2024-02-16T01:56:03;13.00;1.00
6756;DHT22;3415;51.148;7.014;2024-02-16T01:58:31;12.90;1.00
6756;DHT22;3415;51.148;7.014;2024-02-16T02:00:58;12.90;1.00
6756;DHT22;3415;51.148;7.014;2024-02-16T02:03:25;13.00;1.00
6756;DHT22;3415;51.148;7.014;2024-02-16T02:05:52;13.00;1.00
6756;DHT22;3415;51.148;7.014;2024-02-16T02:08:20;13.00;1.00
6756;DHT22;3415;51.148;7.014;2024-02-16T02:10:48;12.90;1.00
6756;DHT22;3415;51.148;7.014;2024-02-16T02:15:45;13.00;1.00
6756;DHT22;3415;51.148;7.014;2024-02-16T02:18:12;13.10;1.00
6756;DHT22;3415;51.148;7.014;2024-02-16T02:20:39;13.10;1.00
6756;DHT22;3415;51.148;7.014;2024-02-16T02:23:07;13.30;1.00
6756;DHT22;3415;51.148;7.014;2024-02-16T02:25:34;13.10;1.00
6756;DHT22;3415;51.148;7.014;2024-02-16T02:28:02;13.20;1.00
6756;DHT22;3415;51.148;7.014;2024-02-16T02:30:29;13.20;1.00
6756;DHT22;3415;51.148;7.014;2024-02-16T02:32:56;13.20;1.00
6756;DHT22;3415;51.148;7.014;2024-02-16T02:35:23;13.30;1.00
6756;DHT22;3415;51.148;7.014;2024-02-16T02:37:50;13.30;1.00
6756;DHT22;3415;51.148;7.014;2024-02-16T02:40:19;13.30;1.00
6756;DHT22;3415;51.148;7.014;2024-02-16T02:42:46;13.30;1.00
6756;DHT22;3415;51.148;7.014;2024-02-16T02:47:40;13.20;1.00
6756;DHT22;3415;51.148;7.014;2024-02-16T02:50:08;13.10;1.00
6756;DHT22;3415;51.148;7.014;2024-02-16T02:52:35;13.00;1.00
6756;DHT22;3415;51.148;7.014;2024-02-16T02:55:02;13.00;1.00
6756;DHT22;3415;51.148;7.014;2024-02-16T02:57:31;13.00;1.00
6756;DHT22;3415;51.148;7.014;2024-02-16T03:00:03;13.10;1.00
6756;DHT22;3415;51.148;7.014;2024-02-16T03:02:33;13.00;1.00
6756;DHT22;3415;51.148;7.014;2024-02-16T03:05:00;13.00;1.00
6756;DHT22;3415;51.148;7.014;2024-02-16T03:07:26;13.30;1.00
6756;DHT22;3415;51.148;7.014;2024-02-16T03:09:54;13.10;1.00
6756;DHT22;3415;51.148;7.014;2024-02-16T03:12:20;13.00;1.00
6756;DHT22;3415;51.148;7.014;2024-02-16T03:14:49;13.10;1.00
6756;DHT22;3415;51.148;7.014;2024-02-16T03:17:16;13.10;1.00
6756;DHT22;3415;51.148;7.014;2024-02-16T03:19:43;13.10;1.00
6756;DHT22;3415;51.148;7.014;2024-02-16T03:22:10;13.10;1.00
6756;DHT22;3415;51.148;7.014;2024-02-16T03:24:38;13.00;1.00
6756;DHT22;3415;51.148;7.014;2024-02-16T03:27:05;13.10;1.00
6756;DHT22;3415;51.148;7.014;2024-02-16T03:32:01;13.10;1.00
6756;DHT22;3415;51.148;7.014;2024-02-16T03:34:27;13.20;1.00
6756;DHT22;3415;51.148;7.014;2024-02-16T03:36:54;13.10;1.00
6756;DHT22;3415;51.148;7.014;2024-02-16T03:39:21;13.10;1.00
6756;DHT22;3415;51.148;7.014;2024-02-16T03:44:16;13.20;1.00
6756;DHT22;3415;51.148;7.014;2024-02-16T03:46:43;13.30;1.00
6756;DHT22;3415;51.148;7.014;2024-02-16T03:49:11;13.40;1.00
6756;DHT22;3415;51.148;7.014;2024-02-16T03:54:05;13.10;1.00
6756;DHT22;3415;51.148;7.014;2024-02-16T03:56:32;12.90;1.00
6756;DHT22;3415;51.148;7.014;2024-02-16T03:59:00;13.00;1.00
6756;DHT22;3415;51.148;7.014;2024-02-16T04:01:26;13.00;1.00
6756;DHT22;3415;51.148;7.014;2024-02-16T04:03:53;13.10;1.00
6756;DHT22;3415;51.148;7.014;2024-02-16T04:06:22;13.20;1.00
6756;DHT22;3415;51.148;7.014;2024-02-16T04:11:16;13.20;1.00
6756;DHT22;3415;51.148;7.014;2024-02-16T04:13:43;13.20;1.00
6756;DHT22;3415;51.148;7.014;2024-02-16T04:16:10;13.20;1.00
6756;DHT22;3415;51.148;7.014;2024-02-16T04:18:37;13.20;1.00
6756;DHT22;3415;51.148;7.014;2024-02-16T04:21:04;13.20;1.00
6756;DHT22;3415;51.148;7.014;2024-02-16T04:23:33;13.20;1.00
6756;DHT22;3415;51.148;7.014;2024-02-16T04:26:00;13.20;1.00
6756;DHT22;3415;51.148;7.014;2024-02-16T04:28:26;13.20;1.00
6756;DHT22;3415;51.148;7.014;2024-02-16T04:30:53;13.20;1.00
6756;DHT22;3415;51.148;7.014;2024-02-16T04:33:21;13.20;1.00
6756;DHT22;3415;51.148;7.014;2024-02-16T04:35:47;13.20;1.00
6756;DHT22;3415;51.148;7.014;2024-02-16T04:38:16;13.20;1.00
6756;DHT22;3415;51.148;7.014;2024-02-16T04:40:45;13.20;1.00
6756;DHT22;3415;51.148;7.014;2024-02-16T04:43:12;13.30;1.00
6756;DHT22;3415;51.148;7.014;2024-02-16T04:45:39;13.30;1.00
6756;DHT22;3415;51.148;7.014;2024-02-16T04:48:07;13.30;1.00
6756;DHT22;3415;51.148;7.014;2024-02-16T04:50:35;13.20;1.00
6756;DHT22;3415;51.148;7.014;2024-02-16T04:53:02;13.20;1.00
6756;DHT22;3415;51.148;7.014;2024-02-16T04:55:30;13.20;1.00
6756;DHT22;3415;51.148;7.014;2024-02-16T04:57:58;13.20;1.00
6756;DHT22;3415;51.148;7.014;2024-02-16T05:00:25;13.20;1.00
6756;DHT22;3415;51.148;7.014;2024-02-16T05:02:52;13.30;1.00
6756;DHT22;3415;51.148;7.014;2024-02-16T05:07:48;13.20;1.00
6756;DHT22;3415;51.148;7.014;2024-02-16T05:10:16;13.20;1.00
6756;DHT22;3415;51.148;7.014;2024-02-16T05:12:45;13.10;1.00
6756;DHT22;3415;51.148;7.014;2024-02-16T05:15:13;13.10;1.00
6756;DHT22;3415;51.148;7.014;2024-02-16T05:17:41;13.10;1.00
6756;DHT22;3415;51.148;7.014;2024-02-16T05:20:10;13.10;1.00
6756;DHT22;3415;51.148;7.014;2024-02-16T05:22:41;13.00;1.00
6756;DHT22;3415;51.148;7.014;2024-02-16T05:25:09;13.00;1.00
6756;DHT22;3415;51.148;7.014;2024-02-16T05:27:36;13.00;1.00
6756;DHT22;3415;51.148;7.014;2024-02-16T05:30:05;13.30;1.00
6756;DHT22;3415;51.148;7.014;2024-02-16T05:32:35;13.00;1.00
6756;DHT22;3415;51.148;7.014;2024-02-16T05:35:03;13.00;1.00
6756;DHT22;3415;51.148;7.014;2024-02-16T05:37:37;13.00;1.00
6756;DHT22;3415;51.148;7.014;2024-02-16T05:40:08;13.20;1.00
6756;DHT22;3415;51.148;7.014;2024-02-16T05:42:46;13.00;1.00
6756;DHT22;3415;51.148;7.014;2024-02-16T05:45:13;13.00;1.00
6756;DHT22;3415;51.148;7.014;2024-02-16T05:47:43;13.00;1.00
6756;DHT22;3415;51.148;7.014;2024-02-16T05:50:12;13.10;1.00
6756;DHT22;3415;51.148;7.014;2024-02-16T05:52:39;13.00;1.00
6756;DHT22;3415;51.148;7.014;2024-02-16T05:55:07;12.90;1.00
6756;DHT22;3415;51.148;7.014;2024-02-16T05:57:35;13.00;1.00
6756;DHT22;3415;51.148;7.014;2024-02-16T06:00:03;13.00;1.00
6756;DHT22;3415;51.148;7.014;2024-02-16T06:02:31;13.00;1.00
6756;DHT22;3415;51.148;7.014;2024-02-16T06:04:59;13.00;1.00
6756;DHT22;3415;51.148;7.014;2024-02-16T06:07:28;13.10;1.00
6756;DHT22;3415;51.148;7.014;2024-02-16T06:09:56;13.00;1.00
6756;DHT22;3415;51.148;7.014;2024-02-16T06:12:23;13.00;1.00
6756;DHT22;3415;51.148;7.014;2024-02-16T06:14:50;12.90;1.00
6756;DHT22;3415;51.148;7.014;2024-02-16T06:17:19;12.90;1.00
6756;DHT22;3415;51.148;7.014;2024-02-16T06:19:49;12.90;1.00
6756;DHT22;3415;51.148;7.014;2024-02-16T06:22:19;13.10;1.00
6756;DHT22;3415;51.148;7.014;2024-02-16T06:24:47;12.70;1.00
6756;DHT22;3415;51.148;7.014;2024-02-16T06:27:15;13.10;1.00
6756;DHT22;3415;51.148;7.014;2024-02-16T06:29:42;13.10;1.00
6756;DHT22;3415;51.148;7.014;2024-02-16T06:32:09;13.20;1.00
6756;DHT22;3415;51.148;7.014;2024-02-16T06:34:40;13.20;1.00
6756;DHT22;3415;51.148;7.014;2024-02-16T06:37:08;13.20;1.00
6756;DHT22;3415;51.148;7.014;2024-02-16T06:39:37;13.20;1.00
6756;DHT22;3415;51.148;7.014;2024-02-16T06:42:05;13.10;1.00
6756;DHT22;3415;51.148;7.014;2024-02-16T06:44:32;13.10;1.00
6756;DHT22;3415;51.148;7.014;2024-02-16T06:49:27;13.20;1.00
6756;DHT22;3415;51.148;7.014;2024-02-16T06:51:54;13.20;1.00
6756;DHT22;3415;51.148;7.014;2024-02-16T06:54:20;13.20;1.00
6756;DHT22;3415;51.148;7.014;2024-02-16T06:56:49;13.20;1.00
6756;DHT22;3415;51.148;7.014;2024-02-16T06:59:16;13.30;1.00
6756;DHT22;3415;51.148;7.014;2024-02-16T07:01:44;13.40;1.00
6756;DHT22;3415;51.148;7.014;2024-02-16T07:04:10;13.30;1.00
6756;DHT22;3415;51.148;7.014;2024-02-16T07:06:37;13.30;1.00
6756;DHT22;3415;51.148;7.014;2024-02-16T07:09:04;13.30;1.00
6756;DHT22;3415;51.148;7.014;2024-02-16T07:11:31;13.30;1.00
6756;DHT22;3415;51.148;7.014;2024-02-16T07:14:01;13.30;1.00
6756;DHT22;3415;51.148;7.014;2024-02-16T07:16:29;13.30;1.00
6756;DHT22;3415;51.148;7.014;2024-02-16T07:18:57;13.40;1.00
6756;DHT22;3415;51.148;7.014;2024-02-16T07:21:24;13.30;1.00
6756;DHT22;3415;51.148;7.014;2024-02-16T07:23:52;13.30;1.00
6756;DHT22;3415;51.148;7.014;2024-02-16T07:26:19;13.30;1.00
6756;DHT22;3415;51.148;7.014;2024-02-16T07:28:45;13.40;1.00
6756;DHT22;3415;51.148;7.014;2024-02-16T07:31:14;13.40;1.00
6756;DHT22;3415;51.148;7.014;2024-02-16T07:33:41;13.40;1.00
6756;DHT22;3415;51.148;7.014;2024-02-16T07:36:08;13.40;1.00
6756;DHT22;3415;51.148;7.014;2024-02-16T07:38:35;13.50;1.00
6756;DHT22;3415;51.148;7.014;2024-02-16T07:41:02;13.50;1.00
6756;DHT22;3415;51.148;7.014;2024-02-16T07:43:31;13.60;1.00
6756;DHT22;3415;51.148;7.014;2024-02-16T07:45:58;13.60;1.00
6756;DHT22;3415;51.148;7.014;2024-02-16T07:48:26;13.60;1.00
6756;DHT22;3415;51.148;7.014;2024-02-16T07:50:54;13.70;1.00
6756;DHT22;3415;51.148;7.014;2024-02-16T07:53:23;13.70;1.00
6756;DHT22;3415;51.148;7.014;2024-02-16T07:55:50;13.70;1.00
6756;DHT22;3415;51.148;7.014;2024-02-16T07:58:17;13.80;1.00
6756;DHT22;3415;51.148;7.014;2024-02-16T08:00:44;13.80;1.00
6756;DHT22;3415;51.148;7.014;2024-02-16T08:03:11;13.80;1.00
6756;DHT22;3415;51.148;7.014;2024-02-16T08:05:39;13.80;1.00
6756;DHT22;3415;51.148;7.014;2024-02-16T08:08:06;13.80;1.00
6756;DHT22;3415;51.148;7.014;2024-02-16T08:10:33;13.80;1.00
6756;DHT22;3415;51.148;7.014;2024-02-16T08:13:01;13.80;1.00
6756;DHT22;3415;51.148;7.014;2024-02-16T08:15:28;13.80;1.00
6756;DHT22;3415;51.148;7.014;2024-02-16T08:17:54;13.80;1.00
6756;DHT22;3415;51.148;7.014;2024-02-16T08:20:22;13.80;1.00
6756;DHT22;3415;51.148;7.014;2024-02-16T08:22:50;13.80;1.00
6756;DHT22;3415;51.148;7.014;2024-02-16T08:25:17;13.80;1.00
6756;DHT22;3415;51.148;7.014;2024-02-16T08:27:44;13.80;1.00
6756;DHT22;3415;51.148;7.014;2024-02-16T08:30:12;13.80;1.00
6756;DHT22;3415;51.148;7.014;2024-02-16T08:32:39;13.80;1.00
6756;DHT22;3415;51.148;7.014;2024-02-16T08:35:07;13.90;1.00
6756;DHT22;3415;51.148;7.014;2024-02-16T08:37:34;13.90;1.00
6756;DHT22;3415;51.148;7.014;2024-02-16T08:40:03;13.90;1.00
6756;DHT22;3415;51.148;7.014;2024-02-16T08:42:31;13.90;1.00
6756;DHT22;3415;51.148;7.014;2024-02-16T08:44:57;14.00;1.00
6756;DHT22;3415;51.148;7.014;2024-02-16T08:47:25;14.00;1.00
6756;DHT22;3415;51.148;7.014;2024-02-16T08:49:52;14.10;1.00
6756;DHT22;3415;51.148;7.014;2024-02-16T08:52:19;14.20;1.00
6756;DHT22;3415;51.148;7.014;2024-02-16T08:57:16;14.30;1.00
6756;DHT22;3415;51.148;7.014;2024-02-16T08:59:42;14.30;1.00
6756;DHT22;3415;51.148;7.014;2024-02-16T09:02:11;14.30;1.00
6756;DHT22;3415;51.148;7.014;2024-02-16T09:04:38;14.60;1.00
6756;DHT22;3415;51.148;7.014;2024-02-16T09:07:05;14.30;1.00
6756;DHT22;3415;51.148;7.014;2024-02-16T09:09:32;14.40;1.00
6756;DHT22;3415;51.148;7.014;2024-02-16T09:12:00;14.50;1.00
6756;DHT22;3415;51.148;7.014;2024-02-16T09:14:28;14.40;1.00
6756;DHT22;3415;51.148;7.014;2024-02-16T09:16:55;14.50;1.00
6756;DHT22;3415;51.148;7.014;2024-02-16T09:19:22;14.50;1.00
6756;DHT22;3415;51.148;7.014;2024-02-16T09:21:49;14.60;1.00
6756;DHT22;3415;51.148;7.014;2024-02-16T09:24:17;14.60;1.00
6756;DHT22;3415;51.148;7.014;2024-02-16T09:26:44;14.60;1.00
6756;DHT22;3415;51.148;7.014;2024-02-16T09:29:13;14.60;1.00
6756;DHT22;3415;51.148;7.014;2024-02-16T09:31:41;14.60;1.00
6756;DHT22;3415;51.148;7.014;2024-02-16T09:34:08;14.60;1.00
6756;DHT22;3415;51.148;7.014;2024-02-16T09:36:35;14.60;1.00
6756;DHT22;3415;51.148;7.014;2024-02-16T09:39:03;14.50;1.00
6756;DHT22;3415;51.148;7.014;2024-02-16T09:41:34;14.50;1.00
6756;DHT22;3415;51.148;7.014;2024-02-16T09:44:02;14.50;1.00
6756;DHT22;3415;51.148;7.014;2024-02-16T09:46:30;14.50;1.00
6756;DHT22;3415;51.148;7.014;2024-02-16T09:49:01;14.60;1.00
6756;DHT22;3415;51.148;7.014;2024-02-16T09:51:29;14.60;1.00
6756;DHT22;3415;51.148;7.014;2024-02-16T09:53:56;14.60;1.00
6756;DHT22;3415;51.148;7.014;2024-02-16T09:56:23;14.50;1.00
6756;DHT22;3415;51.148;7.014;2024-02-16T09:58:51;14.60;1.00
6756;DHT22;3415;51.148;7.014;2024-02-16T10:01:18;14.70;1.00
6756;DHT22;3415;51.148;7.014;2024-02-16T10:03:47;14.70;1.00
6756;DHT22;3415;51.148;7.014;2024-02-16T10:06:16;14.80;1.00
6756;DHT22;3415;51.148;7.014;2024-02-16T10:08:49;14.90;1.00
6756;DHT22;3415;51.148;7.014;2024-02-16T10:11:17;14.80;1.00
6756;DHT22;3415;51.148;7.014;2024-02-16T10:13:54;14.80;1.00
6756;DHT22;3415;51.148;7.014;2024-02-16T10:16:23;14.70;1.00
6756;DHT22;3415;51.148;7.014;2024-02-16T10:18:50;14.60;1.00
6756;DHT22;3415;51.148;7.014;2024-02-16T10:21:25;14.60;1.00
6756;DHT22;3415;51.148;7.014;2024-02-16T10:26:27;14.60;1.00
6756;DHT22;3415;51.148;7.014;2024-02-16T10:28:55;14.60;1.00
6756;DHT22;3415;51.148;7.014;2024-02-16T10:31:24;14.70;1.00
6756;DHT22;3415;51.148;7.014;2024-02-16T10:33:57;14.70;1.00
6756;DHT22;3415;51.148;7.014;2024-02-16T10:36:26;14.70;1.00
6756;DHT22;3415;51.148;7.014;2024-02-16T10:38:55;14.80;1.00
6756;DHT22;3415;51.148;7.014;2024-02-16T10:41:26;14.80;1.00
6756;DHT22;3415;51.148;7.014;2024-02-16T10:43:55;14.70;1.00
6756;DHT22;3415;51.148;7.014;2024-02-16T10:46:23;14.70;1.00
6756;DHT22;3415;51.148;7.014;2024-02-16T10:48:50;14.60;1.00
6756;DHT22;3415;51.148;7.014;2024-02-16T10:51:30;14.50;1.00
6756;DHT22;3415;51.148;7.014;2024-02-16T10:54:00;14.50;1.00
6756;DHT22;3415;51.148;7.014;2024-02-16T10:56:31;14.70;1.00
6756;DHT22;3415;51.148;7.014;2024-02-16T10:59:04;14.40;1.00
6756;DHT22;3415;51.148;7.014;2024-02-16T11:01:38;14.30;1.00
6756;DHT22;3415;51.148;7.014;2024-02-16T11:04:06;14.30;1.00
6756;DHT22;3415;51.148;7.014;2024-02-16T11:06:46;14.30;1.00
6756;DHT22;3415;51.148;7.014;2024-02-16T11:09:26;14.40;1.00
6756;DHT22;3415;51.148;7.014;2024-02-16T11:11:54;14.40;1.00
6756;DHT22;3415;51.148;7.014;2024-02-16T11:14:22;14.40;1.00
6756;DHT22;3415;51.148;7.014;2024-02-16T11:16:54;14.40;1.00
6756;DHT22;3415;51.148;7.014;2024-02-16T11:19:22;14.40;1.00
6756;DHT22;3415;51.148;7.014;2024-02-16T11:21:57;14.30;1.00
6756;DHT22;3415;51.148;7.014;2024-02-16T11:24:31;14.40;1.00
6756;DHT22;3415;51.148;7.014;2024-02-16T11:27:00;14.20;1.00
6756;DHT22;3415;51.148;7.014;2024-02-16T11:29:31;14.20;1.00
6756;DHT22;3415;51.148;7.014;2024-02-16T11:32:00;14.30;1.00
6756;DHT22;3415;51.148;7.014;2024-02-16T11:34:28;14.20;1.00
6756;DHT22;3415;51.148;7.014;2024-02-16T11:36:58;14.20;1.00
6756;DHT22;3415;51.148;7.014;2024-02-16T11:39:25;14.20;1.00
6756;DHT22;3415;51.148;7.014;2024-02-16T11:41:59;14.20;1.00
6756;DHT22;3415;51.148;7.014;2024-02-16T11:44:28;14.20;1.00
6756;DHT22;3415;51.148;7.014;2024-02-16T11:46:55;14.20;1.00
6756;DHT22;3415;51.148;7.014;2024-02-16T11:49:22;14.20;1.00
6756;DHT22;3415;51.148;7.014;2024-02-16T11:51:50;14.20;1.00
6756;DHT22;3415;51.148;7.014;2024-02-16T11:54:18;14.10;1.00
6756;DHT22;3415;51.148;7.014;2024-02-16T11:56:46;14.10;1.00
6756;DHT22;3415;51.148;7.014;2024-02-16T11:59:16;14.10;1.00
6756;DHT22;3415;51.148;7.014;2024-02-16T12:01:51;14.50;1.00
6756;DHT22;3415;51.148;7.014;2024-02-16T12:04:25;14.10;1.00
6756;DHT22;3415;51.148;7.014;2024-02-16T12:06:55;14.00;1.00
6756;DHT22;3415;51.148;7.014;2024-02-16T12:09:24;14.00;1.00
6756;DHT22;3415;51.148;7.014;2024-02-16T12:11:53;13.90;1.00
6756;DHT22;3415;51.148;7.014;2024-02-16T12:14:22;14.00;1.00
6756;DHT22;3415;51.148;7.014;2024-02-16T12:16:50;14.20;1.00
6756;DHT22;3415;51.148;7.014;2024-02-16T12:19:18;14.00;1.00
6756;DHT22;3415;51.148;7.014;2024-02-16T12:21:49;13.90;1.00
6756;DHT22;3415;51.148;7.014;2024-02-16T12:26:45;13.90;1.00
6756;DHT22;3415;51.148;7.014;2024-02-16T12:29:12;13.90;1.00
6756;DHT22;3415;51.148;7.014;2024-02-16T12:31:39;13.90;1.00
6756;DHT22;3415;51.148;7.014;2024-02-16T12:34:07;13.80;1.00
6756;DHT22;3415;51.148;7.014;2024-02-16T12:36:34;13.80;1.00
6756;DHT22;3415;51.148;7.014;2024-02-16T12:39:02;13.90;1.00
6756;DHT22;3415;51.148;7.014;2024-02-16T12:41:29;13.80;1.00
6756;DHT22;3415;51.148;7.014;2024-02-16T12:43:58;13.40;1.00
6756;DHT22;3415;51.148;7.014;2024-02-16T12:46:25;13.40;1.00
6756;DHT22;3415;51.148;7.014;2024-02-16T12:48:53;13.20;1.00
6756;DHT22;3415;51.148;7.014;2024-02-16T12:51:21;13.10;1.00
6756;DHT22;3415;51.148;7.014;2024-02-16T12:53:48;13.00;1.00
6756;DHT22;3415;51.148;7.014;2024-02-16T12:56:15;13.00;1.00
6756;DHT22;3415;51.148;7.014;2024-02-16T12:58:42;12.90;1.00
6756;DHT22;3415;51.148;7.014;2024-02-16T13:01:10;12.90;28.60
6756;DHT22;3415;51.148;7.014;2024-02-16T13:03:38;12.80;66.20
6756;DHT22;3415;51.148;7.014;2024-02-16T13:06:06;12.70;99.90
6756;DHT22;3415;51.148;7.014;2024-02-16T13:08:33;12.70;99.90
6756;DHT22;3415;51.148;7.014;2024-02-16T13:11:00;12.70;99.90
6756;DHT22;3415;51.148;7.014;2024-02-16T13:15:54;12.60;99.90
6756;DHT22;3415;51.148;7.014;2024-02-16T13:18:25;12.60;99.90
6756;DHT22;3415;51.148;7.014;2024-02-16T13:20:52;12.60;99.90
6756;DHT22;3415;51.148;7.014;2024-02-16T13:23:19;12.60;99.90
6756;DHT22;3415;51.148;7.014;2024-02-16T13:25:47;12.70;99.90
6756;DHT22;3415;51.148;7.014;2024-02-16T13:28:14;12.60;1.00
6756;DHT22;3415;51.148;7.014;2024-02-16T13:30:42;12.70;1.00
6756;DHT22;3415;51.148;7.014;2024-02-16T13:33:09;12.60;1.00
6756;DHT22;3415;51.148;7.014;2024-02-16T13:35:37;13.10;1.00
6756;DHT22;3415;51.148;7.014;2024-02-16T13:38:04;12.70;1.00
6756;DHT22;3415;51.148;7.014;2024-02-16T13:40:31;12.70;1.00
6756;DHT22;3415;51.148;7.014;2024-02-16T13:45:30;12.70;1.00
6756;DHT22;3415;51.148;7.014;2024-02-16T13:48:14;12.70;1.00
6756;DHT22;3415;51.148;7.014;2024-02-16T13:50:44;12.70;1.00
6756;DHT22;3415;51.148;7.014;2024-02-16T13:53:11;12.70;1.00
6756;DHT22;3415;51.148;7.014;2024-02-16T13:55:39;12.70;1.00
6756;DHT22;3415;51.148;7.014;2024-02-16T13:58:07;12.80;1.00
6756;DHT22;3415;51.148;7.014;2024-02-16T14:00:34;12.70;1.00
6756;DHT22;3415;51.148;7.014;2024-02-16T14:03:02;12.80;1.00
6756;DHT22;3415;51.148;7.014;2024-02-16T14:05:31;12.80;1.00
6756;DHT22;3415;51.148;7.014;2024-02-16T14:08:00;12.90;1.00
6756;DHT22;3415;51.148;7.014;2024-02-16T14:10:27;12.80;1.00
6756;DHT22;3415;51.148;7.014;2024-02-16T14:12:55;12.80;1.00
6756;DHT22;3415;51.148;7.014;2024-02-16T14:15:22;12.80;1.00
6756;DHT22;3415;51.148;7.014;2024-02-16T14:17:49;12.80;1.00
6756;DHT22;3415;51.148;7.014;2024-02-16T14:20:16;12.80;1.00
6756;DHT22;3415;51.148;7.014;2024-02-16T14:22:43;12.80;1.00
6756;DHT22;3415;51.148;7.014;2024-02-16T14:25:12;12.90;1.00
6756;DHT22;3415;51.148;7.014;2024-02-16T14:27:39;12.90;1.00
6756;DHT22;3415;51.148;7.014;2024-02-16T14:30:08;12.80;1.00
6756;DHT22;3415;51.148;7.014;2024-02-16T14:32:36;12.80;1.00
6756;DHT22;3415;51.148;7.014;2024-02-16T14:35:04;12.80;1.00
6756;DHT22;3415;51.148;7.014;2024-02-16T14:37:32;12.80;1.00
6756;DHT22;3415;51.148;7.014;2024-02-16T14:39:59;12.80;1.00
6756;DHT22;3415;51.148;7.014;2024-02-16T14:42:30;12.90;1.00
6756;DHT22;3415;51.148;7.014;2024-02-16T14:44:57;12.90;1.00
6756;DHT22;3415;51.148;7.014;2024-02-16T14:47:24;12.90;1.00
6756;DHT22;3415;51.148;7.014;2024-02-16T14:49:51;12.90;1.00
6756;DHT22;3415;51.148;7.014;2024-02-16T14:52:18;12.90;1.00
6756;DHT22;3415;51.148;7.014;2024-02-16T14:57:13;12.90;1.00
6756;DHT22;3415;51.148;7.014;2024-02-16T14:59:41;12.90;1.00
6756;DHT22;3415;51.148;7.014;2024-02-16T15:02:08;13.00;1.00
6756;DHT22;3415;51.148;7.014;2024-02-16T15:04:35;12.90;1.00
6756;DHT22;3415;51.148;7.014;2024-02-16T15:07:03;13.00;1.00
6756;DHT22;3415;51.148;7.014;2024-02-16T15:09:31;12.90;1.00
6756;DHT22;3415;51.148;7.014;2024-02-16T15:11:58;12.90;1.00
6756;DHT22;3415;51.148;7.014;2024-02-16T15:14:25;12.80;1.00
6756;DHT22;3415;51.148;7.014;2024-02-16T15:16:53;12.90;1.00
6756;DHT22;3415;51.148;7.014;2024-02-16T15:19:20;13.00;1.00
6756;DHT22;3415;51.148;7.014;2024-02-16T15:21:47;12.90;1.00
6756;DHT22;3415;51.148;7.014;2024-02-16T15:24:14;12.90;1.00
6756;DHT22;3415;51.148;7.014;2024-02-16T15:26:41;13.00;1.00
6756;DHT22;3415;51.148;7.014;2024-02-16T15:29:08;12.80;1.00
6756;DHT22;3415;51.148;7.014;2024-02-16T15:31:35;12.90;7.60
6756;DHT22;3415;51.148;7.014;2024-02-16T15:34:03;12.90;13.20
6756;DHT22;3415;51.148;7.014;2024-02-16T15:36:30;12.90;26.50
6756;DHT22;3415;51.148;7.014;2024-02-16T15:38:57;12.80;25.20
6756;DHT22;3415;51.148;7.014;2024-02-16T15:41:25;12.90;26.70
6756;DHT22;3415;51.148;7.014;2024-02-16T15:43:53;12.90;26.80
6756;DHT22;3415;51.148;7.014;2024-02-16T15:46:20;12.80;26.60
6756;DHT22;3415;51.148;7.014;2024-02-16T15:48:47;12.80;26.60
6756;DHT22;3415;51.148;7.014;2024-02-16T15:51:17;12.80;25.30
6756;DHT22;3415;51.148;7.014;2024-02-16T15:53:44;12.70;26.70
6756;DHT22;3415;51.148;7.014;2024-02-16T15:56:11;12.70;36.80
6756;DHT22;3415;51.148;7.014;2024-02-16T15:58:38;12.60;32.10
6756;DHT22;3415;51.148;7.014;2024-02-16T16:01:05;12.60;26.60
6756;DHT22;3415;51.148;7.014;2024-02-16T16:03:32;12.50;27.00
6756;DHT22;3415;51.148;7.014;2024-02-16T16:05:59;12.40;26.60
6756;DHT22;3415;51.148;7.014;2024-02-16T16:08:28;12.40;42.30
6756;DHT22;3415;51.148;7.014;2024-02-16T16:10:55;12.50;62.40
6756;DHT22;3415;51.148;7.014;2024-02-16T16:13:23;12.40;58.90
6756;DHT22;3415;51.148;7.014;2024-02-16T16:15:50;12.30;78.20
6756;DHT22;3415;51.148;7.014;2024-02-16T16:18:17;12.30;78.30
6756;DHT22;3415;51.148;7.014;2024-02-16T16:20:44;9.80;79.10
6756;DHT22;3415;51.148;7.014;2024-02-16T16:23:11;12.30;99.90
6756;DHT22;3415;51.148;7.014;2024-02-16T16:25:39;12.30;99.90
6756;DHT22;3415;51.148;7.014;2024-02-16T16:28:06;12.40;99.90
6756;DHT22;3415;51.148;7.014;2024-02-16T16:30:33;12.40;99.90
6756;DHT22;3415;51.148;7.014;2024-02-16T16:33:00;12.40;99.90
6756;DHT22;3415;51.148;7.014;2024-02-16T16:35:27;12.30;99.90
6756;DHT22;3415;51.148;7.014;2024-02-16T16:37:54;12.40;99.90
6756;DHT22;3415;51.148;7.014;2024-02-16T16:40:21;12.40;99.90
6756;DHT22;3415;51.148;7.014;2024-02-16T16:42:50;12.30;99.90
6756;DHT22;3415;51.148;7.014;2024-02-16T16:45:17;12.40;99.90
6756;DHT22;3415;51.148;7.014;2024-02-16T16:47:43;12.40;99.90
6756;DHT22;3415;51.148;7.014;2024-02-16T16:50:11;12.40;99.90
6756;DHT22;3415;51.148;7.014;2024-02-16T16:52:38;12.40;99.90
6756;DHT22;3415;51.148;7.014;2024-02-16T16:55:06;12.40;99.90
6756;DHT22;3415;51.148;7.014;2024-02-16T16:57:33;12.40;99.90
6756;DHT22;3415;51.148;7.014;2024-02-16T17:00:02;12.30;99.90
6756;DHT22;3415;51.148;7.014;2024-02-16T17:02:30;12.30;99.90
6756;DHT22;3415;51.148;7.014;2024-02-16T17:04:57;12.60;99.90
6756;DHT22;3415;51.148;7.014;2024-02-16T17:07:24;12.30;99.90
6756;DHT22;3415;51.148;7.014;2024-02-16T17:09:51;12.20;99.90
6756;DHT22;3415;51.148;7.014;2024-02-16T17:12:20;12.20;99.90